sensor_id;sensor_type;location;lat;lon;timestamp;P1;durP1;ratioP1;P2;durP2;ratioP2
70450;SDS011;58869;51.982;4.450;2023-06-10T00:02:07;14.59;;;14.59;;
70450;SDS011;58869;51.982;4.450;2023-06-10T00:04:33;14.94;;;14.94;;
70450;SDS011;58869;51.982;4.450;2023-06-10T00:06:59;14.55;;;14.55;;
70450;SDS011;58869;51.982;4.450;2023-06-10T00:09:25;14.54;;;14.54;;
70450;SDS011;58869;51.982;4.450;2023-06-10T00:11:51;14.41;;;14.41;;
70450;SDS011;58869;51.982;4.450;2023-06-10T00:14:17;14.56;;;14.56;;
70450;SDS011;58869;51.982;4.450;2023-06-10T00:16:42;14.52;;;14.52;;
70450;SDS011;58869;51.982;4.450;2023-06-10T00:19:10;14.72;;;14.72;;
70450;SDS011;58869;51.982;4.450;2023-06-10T00:21:39;14.22;;;14.22;;
70450;SDS011;58869;51.982;4.450;2023-06-10T00:24:09;14.12;;;14.12;;
70450;SDS011;58869;51.982;4.450;2023-06-10T00:26:37;14.26;;;14.26;;
70450;SDS011;58869;51.982;4.450;2023-06-10T00:29:05;14.26;;;14.26;;
70450;SDS011;58869;51.982;4.450;2023-06-10T00:31:30;14.33;;;14.33;;
70450;SDS011;58869;51.982;4.450;2023-06-10T00:33:56;14.60;;;14.60;;
70450;SDS011;58869;51.982;4.450;2023-06-10T00:36:21;14.84;;;14.84;;
70450;SDS011;58869;51.982;4.450;2023-06-10T00:38:47;14.91;;;14.91;;
70450;SDS011;58869;51.982;4.450;2023-06-10T00:41:12;15.16;;;15.16;;
70450;SDS011;58869;51.982;4.450;2023-06-10T00:43:38;14.82;;;14.82;;
70450;SDS011;58869;51.982;4.450;2023-06-10T00:46:03;14.89;;;14.89;;
70450;SDS011;58869;51.982;4.450;2023-06-10T00:48:29;15.37;;;15.37;;
70450;SDS011;58869;51.982;4.450;2023-06-10T00:50:56;14.37;;;14.37;;
70450;SDS011;58869;51.982;4.450;2023-06-10T00:53:24;13.73;;;13.73;;
70450;SDS011;58869;51.982;4.450;2023-06-10T00:55:51;14.20;;;14.20;;
70450;SDS011;58869;51.982;4.450;2023-06-10T00:58:16;14.02;;;14.02;;
70450;SDS011;58869;51.982;4.450;2023-06-10T01:00:42;14.23;;;14.23;;
70450;SDS011;58869;51.982;4.450;2023-06-10T01:03:10;13.92;;;13.92;;
70450;SDS011;58869;51.982;4.450;2023-06-10T01:05:37;14.34;;;14.34;;
70450;SDS011;58869;51.982;4.450;2023-06-10T01:08:09;13.73;;;13.73;;
70450;SDS011;58869;51.982;4.450;2023-06-10T01:10:38;13.62;;;13.62;;
70450;SDS011;58869;51.982;4.450;2023-06-10T01:13:09;14.02;;;14.02;;
70450;SDS011;58869;51.982;4.450;2023-06-10T01:15:37;13.91;;;13.91;;
70450;SDS011;58869;51.982;4.450;2023-06-10T01:18:04;14.47;;;14.47;;
70450;SDS011;58869;51.982;4.450;2023-06-10T01:20:32;13.86;;;13.86;;
70450;SDS011;58869;51.982;4.450;2023-06-10T01:22:58;14.11;;;14.11;;
70450;SDS011;58869;51.982;4.450;2023-06-10T01:25:26;13.93;;;13.93;;
70450;SDS011;58869;51.982;4.450;2023-06-10T01:28:02;13.39;;;13.39;;
70450;SDS011;58869;51.982;4.450;2023-06-10T01:33:29;13.46;;;13.46;;
70450;SDS011;58869;51.982;4.450;2023-06-10T01:35:59;13.00;;;13.00;;
70450;SDS011;58869;51.982;4.450;2023-06-10T01:38:27;13.82;;;13.82;;
70450;SDS011;58869;51.982;4.450;2023-06-10T01:40:58;13.52;;;13.52;;
70450;SDS011;58869;51.982;4.450;2023-06-10T01:43:23;13.37;;;13.37;;
70450;SDS011;58869;51.982;4.450;2023-06-10T01:45:49;13.38;;;13.38;;
70450;SDS011;58869;51.982;4.450;2023-06-10T01:48:15;13.39;;;13.39;;
70450;SDS011;58869;51.982;4.450;2023-06-10T01:50:40;12.49;;;12.49;;
70450;SDS011;58869;51.982;4.450;2023-06-10T01:53:05;12.68;;;12.68;;
70450;SDS011;58869;51.982;4.450;2023-06-10T01:55:31;12.86;;;12.86;;
70450;SDS011;58869;51.982;4.450;2023-06-10T01:57:57;12.40;;;12.40;;
70450;SDS011;58869;51.982;4.450;2023-06-10T02:00:22;13.01;;;13.01;;
70450;SDS011;58869;51.982;4.450;2023-06-10T02:02:48;12.80;;;12.80;;
70450;SDS011;58869;51.982;4.450;2023-06-10T02:05:15;12.31;;;12.31;;
70450;SDS011;58869;51.982;4.450;2023-06-10T02:07:41;12.84;;;12.84;;
70450;SDS011;58869;51.982;4.450;2023-06-10T02:10:06;12.48;;;12.48;;
70450;SDS011;58869;51.982;4.450;2023-06-10T02:12:32;12.51;;;12.51;;
70450;SDS011;58869;51.982;4.450;2023-06-10T02:14:58;12.69;;;12.69;;
70450;SDS011;58869;51.982;4.450;2023-06-10T02:17:23;12.07;;;12.07;;
70450;SDS011;58869;51.982;4.450;2023-06-10T02:19:49;12.49;;;12.49;;
70450;SDS011;58869;51.982;4.450;2023-06-10T02:22:21;12.33;;;12.33;;
70450;SDS011;58869;51.982;4.450;2023-06-10T02:24:47;12.03;;;12.03;;
70450;SDS011;58869;51.982;4.450;2023-06-10T02:27:27;11.91;;;11.91;;
70450;SDS011;58869;51.982;4.450;2023-06-10T02:29:52;11.15;;;11.15;;
70450;SDS011;58869;51.982;4.450;2023-06-10T02:32:23;12.00;;;12.00;;
70450;SDS011;58869;51.982;4.450;2023-06-10T02:35:10;11.29;;;11.29;;
70450;SDS011;58869;51.982;4.450;2023-06-10T02:37:37;11.49;;;11.49;;
70450;SDS011;58869;51.982;4.450;2023-06-10T02:40:03;11.60;;;11.60;;
70450;SDS011;58869;51.982;4.450;2023-06-10T02:42:29;11.61;;;11.61;;
70450;SDS011;58869;51.982;4.450;2023-06-10T02:44:55;11.28;;;11.28;;
70450;SDS011;58869;51.982;4.450;2023-06-10T02:47:20;11.57;;;11.57;;
70450;SDS011;58869;51.982;4.450;2023-06-10T02:49:46;11.53;;;11.53;;
70450;SDS011;58869;51.982;4.450;2023-06-10T02:52:11;11.51;;;11.51;;
70450;SDS011;58869;51.982;4.450;2023-06-10T02:54:37;11.36;;;11.36;;
70450;SDS011;58869;51.982;4.450;2023-06-10T02:57:03;11.49;;;11.49;;
70450;SDS011;58869;51.982;4.450;2023-06-10T02:59:31;11.18;;;11.18;;
70450;SDS011;58869;51.982;4.450;2023-06-10T03:01:57;10.98;;;10.98;;
70450;SDS011;58869;51.982;4.450;2023-06-10T03:04:22;11.33;;;11.33;;
70450;SDS011;58869;51.982;4.450;2023-06-10T03:06:50;11.24;;;11.24;;
70450;SDS011;58869;51.982;4.450;2023-06-10T03:09:16;11.16;;;11.16;;
70450;SDS011;58869;51.982;4.450;2023-06-10T03:11:41;11.32;;;11.32;;
70450;SDS011;58869;51.982;4.450;2023-06-10T03:14:06;11.31;;;11.31;;
70450;SDS011;58869;51.982;4.450;2023-06-10T03:16:32;11.44;;;11.44;;
70450;SDS011;58869;51.982;4.450;2023-06-10T03:18:59;11.16;;;11.16;;
70450;SDS011;58869;51.982;4.450;2023-06-10T03:21:24;11.23;;;11.23;;
70450;SDS011;58869;51.982;4.450;2023-06-10T03:23:50;10.51;;;10.51;;
70450;SDS011;58869;51.982;4.450;2023-06-10T03:26:16;10.86;;;10.86;;
70450;SDS011;58869;51.982;4.450;2023-06-10T03:28:41;10.55;;;10.55;;
70450;SDS011;58869;51.982;4.450;2023-06-10T03:31:07;10.64;;;10.64;;
70450;SDS011;58869;51.982;4.450;2023-06-10T03:33:35;10.55;;;10.55;;
70450;SDS011;58869;51.982;4.450;2023-06-10T03:36:01;10.79;;;10.79;;
70450;SDS011;58869;51.982;4.450;2023-06-10T03:38:26;10.83;;;10.83;;
70450;SDS011;58869;51.982;4.450;2023-06-10T03:40:52;10.29;;;10.29;;
70450;SDS011;58869;51.982;4.450;2023-06-10T03:43:17;10.04;;;10.04;;
70450;SDS011;58869;51.982;4.450;2023-06-10T03:45:44;9.89;;;9.89;;
70450;SDS011;58869;51.982;4.450;2023-06-10T03:48:10;10.70;;;10.70;;
70450;SDS011;58869;51.982;4.450;2023-06-10T03:50:36;10.34;;;10.34;;
70450;SDS011;58869;51.982;4.450;2023-06-10T03:53:01;10.16;;;10.16;;
70450;SDS011;58869;51.982;4.450;2023-06-10T03:55:27;10.48;;;10.48;;
70450;SDS011;58869;51.982;4.450;2023-06-10T03:57:52;10.66;;;10.66;;
70450;SDS011;58869;51.982;4.450;2023-06-10T04:00:18;10.64;;;10.64;;
70450;SDS011;58869;51.982;4.450;2023-06-10T04:02:46;10.29;;;10.29;;
70450;SDS011;58869;51.982;4.450;2023-06-10T04:05:12;10.34;;;10.34;;
70450;SDS011;58869;51.982;4.450;2023-06-10T04:07:42;10.46;;;10.46;;
70450;SDS011;58869;51.982;4.450;2023-06-10T04:10:34;10.34;;;10.34;;
70450;SDS011;58869;51.982;4.450;2023-06-10T04:13:07;10.28;;;10.28;;
70450;SDS011;58869;51.982;4.450;2023-06-10T04:15:32;10.23;;;10.23;;
70450;SDS011;58869;51.982;4.450;2023-06-10T04:18:01;9.94;;;9.94;;
70450;SDS011;58869;51.982;4.450;2023-06-10T04:20:29;9.97;;;9.97;;
70450;SDS011;58869;51.982;4.450;2023-06-10T04:23:14;9.64;;;9.64;;
70450;SDS011;58869;51.982;4.450;2023-06-10T04:25:40;10.26;;;10.26;;
70450;SDS011;58869;51.982;4.450;2023-06-10T04:28:13;10.51;;;10.51;;
70450;SDS011;58869;51.982;4.450;2023-06-10T04:30:42;9.71;;;9.71;;
70450;SDS011;58869;51.982;4.450;2023-06-10T04:33:10;9.39;;;9.39;;
70450;SDS011;58869;51.982;4.450;2023-06-10T04:36:36;9.47;;;9.47;;
70450;SDS011;58869;51.982;4.450;2023-06-10T04:39:01;9.40;;;9.40;;
70450;SDS011;58869;51.982;4.450;2023-06-10T04:45:38;9.20;;;9.19;;
70450;SDS011;58869;51.982;4.450;2023-06-10T04:48:03;9.78;;;9.72;;
70450;SDS011;58869;51.982;4.450;2023-06-10T04:50:29;9.72;;;9.64;;
70450;SDS011;58869;51.982;4.450;2023-06-10T04:53:00;9.88;;;9.88;;
70450;SDS011;58869;51.982;4.450;2023-06-10T04:55:29;9.52;;;9.52;;
70450;SDS011;58869;51.982;4.450;2023-06-10T04:57:55;9.67;;;9.67;;
70450;SDS011;58869;51.982;4.450;2023-06-10T05:00:20;9.98;;;9.98;;
70450;SDS011;58869;51.982;4.450;2023-06-10T05:02:46;9.62;;;9.62;;
70450;SDS011;58869;51.982;4.450;2023-06-10T05:05:17;9.77;;;9.77;;
70450;SDS011;58869;51.982;4.450;2023-06-10T05:07:43;9.66;;;9.66;;
70450;SDS011;58869;51.982;4.450;2023-06-10T05:10:09;9.62;;;9.62;;
70450;SDS011;58869;51.982;4.450;2023-06-10T05:12:35;9.41;;;9.41;;
70450;SDS011;58869;51.982;4.450;2023-06-10T05:15:00;9.91;;;9.91;;
70450;SDS011;58869;51.982;4.450;2023-06-10T05:17:26;9.25;;;9.25;;
70450;SDS011;58869;51.982;4.450;2023-06-10T05:19:53;9.80;;;9.80;;
70450;SDS011;58869;51.982;4.450;2023-06-10T05:22:18;9.92;;;9.92;;
70450;SDS011;58869;51.982;4.450;2023-06-10T05:24:44;9.67;;;9.67;;
70450;SDS011;58869;51.982;4.450;2023-06-10T05:27:10;9.68;;;9.68;;
70450;SDS011;58869;51.982;4.450;2023-06-10T05:29:35;9.82;;;9.82;;
70450;SDS011;58869;51.982;4.450;2023-06-10T05:32:01;10.02;;;10.02;;
70450;SDS011;58869;51.982;4.450;2023-06-10T05:34:31;9.92;;;9.92;;
70450;SDS011;58869;51.982;4.450;2023-06-10T05:36:56;9.66;;;9.66;;
70450;SDS011;58869;51.982;4.450;2023-06-10T05:39:22;9.68;;;9.68;;
70450;SDS011;58869;51.982;4.450;2023-06-10T05:41:47;9.59;;;9.59;;
70450;SDS011;58869;51.982;4.450;2023-06-10T05:44:15;9.59;;;9.59;;
70450;SDS011;58869;51.982;4.450;2023-06-10T05:46:40;9.69;;;9.69;;
70450;SDS011;58869;51.982;4.450;2023-06-10T05:49:06;9.73;;;9.73;;
70450;SDS011;58869;51.982;4.450;2023-06-10T05:51:33;10.03;;;10.03;;
70450;SDS011;58869;51.982;4.450;2023-06-10T05:53:58;10.12;;;10.12;;
70450;SDS011;58869;51.982;4.450;2023-06-10T05:56:25;9.68;;;9.68;;
70450;SDS011;58869;51.982;4.450;2023-06-10T05:58:51;9.41;;;9.32;;
70450;SDS011;58869;51.982;4.450;2023-06-10T06:01:16;9.64;;;9.64;;
70450;SDS011;58869;51.982;4.450;2023-06-10T06:03:42;9.22;;;9.22;;
70450;SDS011;58869;51.982;4.450;2023-06-10T06:06:07;9.79;;;9.79;;
70450;SDS011;58869;51.982;4.450;2023-06-10T06:08:33;10.22;;;10.22;;
70450;SDS011;58869;51.982;4.450;2023-06-10T06:11:01;10.00;;;10.00;;
70450;SDS011;58869;51.982;4.450;2023-06-10T06:13:26;10.36;;;10.36;;
70450;SDS011;58869;51.982;4.450;2023-06-10T06:15:52;10.42;;;10.38;;
70450;SDS011;58869;51.982;4.450;2023-06-10T06:18:17;10.16;;;10.16;;
70450;SDS011;58869;51.982;4.450;2023-06-10T06:20:46;10.35;;;10.35;;
70450;SDS011;58869;51.982;4.450;2023-06-10T06:23:14;10.16;;;10.16;;
70450;SDS011;58869;51.982;4.450;2023-06-10T06:25:40;10.31;;;10.31;;
70450;SDS011;58869;51.982;4.450;2023-06-10T06:28:09;9.71;;;9.71;;
70450;SDS011;58869;51.982;4.450;2023-06-10T06:30:37;10.54;;;10.54;;
70450;SDS011;58869;51.982;4.450;2023-06-10T06:33:05;10.34;;;10.34;;
70450;SDS011;58869;51.982;4.450;2023-06-10T06:35:32;10.07;;;10.07;;
70450;SDS011;58869;51.982;4.450;2023-06-10T06:37:59;10.58;;;10.58;;
70450;SDS011;58869;51.982;4.450;2023-06-10T06:40:24;10.63;;;10.63;;
70450;SDS011;58869;51.982;4.450;2023-06-10T06:42:50;10.60;;;10.60;;
70450;SDS011;58869;51.982;4.450;2023-06-10T06:45:18;10.33;;;10.33;;
70450;SDS011;58869;51.982;4.450;2023-06-10T06:47:43;10.84;;;10.84;;
70450;SDS011;58869;51.982;4.450;2023-06-10T06:50:12;10.05;;;10.05;;
70450;SDS011;58869;51.982;4.450;2023-06-10T06:52:37;10.00;;;10.00;;
70450;SDS011;58869;51.982;4.450;2023-06-10T06:55:03;10.16;;;10.16;;
70450;SDS011;58869;51.982;4.450;2023-06-10T06:57:28;9.85;;;9.85;;
70450;SDS011;58869;51.982;4.450;2023-06-10T06:59:57;9.96;;;9.96;;
70450;SDS011;58869;51.982;4.450;2023-06-10T07:02:24;9.63;;;9.63;;
70450;SDS011;58869;51.982;4.450;2023-06-10T07:04:49;10.00;;;10.00;;
70450;SDS011;58869;51.982;4.450;2023-06-10T07:07:15;10.03;;;10.03;;
70450;SDS011;58869;51.982;4.450;2023-06-10T07:09:41;10.39;;;10.39;;
70450;SDS011;58869;51.982;4.450;2023-06-10T07:12:08;9.68;;;9.68;;
70450;SDS011;58869;51.982;4.450;2023-06-10T07:14:34;9.50;;;9.50;;
70450;SDS011;58869;51.982;4.450;2023-06-10T07:17:00;10.09;;;10.09;;
70450;SDS011;58869;51.982;4.450;2023-06-10T07:19:25;9.75;;;9.75;;
70450;SDS011;58869;51.982;4.450;2023-06-10T07:21:50;9.54;;;9.54;;
70450;SDS011;58869;51.982;4.450;2023-06-10T07:24:16;9.88;;;9.88;;
70450;SDS011;58869;51.982;4.450;2023-06-10T07:26:41;9.73;;;9.73;;
70450;SDS011;58869;51.982;4.450;2023-06-10T07:29:07;9.81;;;9.81;;
70450;SDS011;58869;51.982;4.450;2023-06-10T07:31:32;9.73;;;9.73;;
70450;SDS011;58869;51.982;4.450;2023-06-10T07:33:58;9.54;;;9.54;;
70450;SDS011;58869;51.982;4.450;2023-06-10T07:36:23;9.25;;;9.25;;
70450;SDS011;58869;51.982;4.450;2023-06-10T07:38:54;9.75;;;9.75;;
70450;SDS011;58869;51.982;4.450;2023-06-10T07:41:22;9.39;;;9.39;;
70450;SDS011;58869;51.982;4.450;2023-06-10T07:50:00;9.18;;;9.18;;
70450;SDS011;58869;51.982;4.450;2023-06-10T07:52:31;9.09;;;9.09;;
70450;SDS011;58869;51.982;4.450;2023-06-10T07:54:57;9.22;;;9.22;;
70450;SDS011;58869;51.982;4.450;2023-06-10T08:00:12;9.47;;;9.47;;
70450;SDS011;58869;51.982;4.450;2023-06-10T08:02:47;9.05;;;9.05;;
70450;SDS011;58869;51.982;4.450;2023-06-10T08:05:19;8.93;;;8.93;;
70450;SDS011;58869;51.982;4.450;2023-06-10T08:07:45;9.17;;;9.17;;
70450;SDS011;58869;51.982;4.450;2023-06-10T08:10:14;8.91;;;8.91;;
70450;SDS011;58869;51.982;4.450;2023-06-10T08:12:39;8.82;;;8.82;;
70450;SDS011;58869;51.982;4.450;2023-06-10T08:18:34;9.10;;;9.10;;
70450;SDS011;58869;51.982;4.450;2023-06-10T08:20:59;8.86;;;8.86;;
70450;SDS011;58869;51.982;4.450;2023-06-10T08:23:31;9.22;;;9.22;;
70450;SDS011;58869;51.982;4.450;2023-06-10T08:26:15;8.48;;;8.48;;
70450;SDS011;58869;51.982;4.450;2023-06-10T08:28:41;8.62;;;8.62;;
70450;SDS011;58869;51.982;4.450;2023-06-10T08:34:46;9.18;;;9.18;;
70450;SDS011;58869;51.982;4.450;2023-06-10T08:37:18;8.57;;;8.57;;
70450;SDS011;58869;51.982;4.450;2023-06-10T08:39:44;8.73;;;8.73;;
70450;SDS011;58869;51.982;4.450;2023-06-10T08:42:23;8.55;;;8.55;;
70450;SDS011;58869;51.982;4.450;2023-06-10T08:45:16;8.75;;;8.75;;
70450;SDS011;58869;51.982;4.450;2023-06-10T08:47:50;8.50;;;8.50;;
70450;SDS011;58869;51.982;4.450;2023-06-10T08:53:17;8.26;;;8.26;;
70450;SDS011;58869;51.982;4.450;2023-06-10T08:55:45;8.74;;;8.74;;
70450;SDS011;58869;51.982;4.450;2023-06-10T08:58:17;8.54;;;8.54;;
70450;SDS011;58869;51.982;4.450;2023-06-10T09:00:43;8.81;;;8.81;;
70450;SDS011;58869;51.982;4.450;2023-06-10T09:03:08;8.52;;;8.52;;
70450;SDS011;58869;51.982;4.450;2023-06-10T09:05:43;8.62;;;8.62;;
70450;SDS011;58869;51.982;4.450;2023-06-10T09:08:09;8.08;;;8.08;;
70450;SDS011;58869;51.982;4.450;2023-06-10T09:10:35;8.55;;;8.55;;
70450;SDS011;58869;51.982;4.450;2023-06-10T09:13:01;8.65;;;8.65;;
70450;SDS011;58869;51.982;4.450;2023-06-10T09:22:18;8.32;;;8.32;;
70450;SDS011;58869;51.982;4.450;2023-06-10T09:24:43;8.62;;;8.62;;
70450;SDS011;58869;51.982;4.450;2023-06-10T09:27:18;8.69;;;8.69;;
70450;SDS011;58869;51.982;4.450;2023-06-10T09:29:47;8.58;;;8.58;;
70450;SDS011;58869;51.982;4.450;2023-06-10T09:32:24;8.27;;;8.27;;
70450;SDS011;58869;51.982;4.450;2023-06-10T09:34:50;8.63;;;8.63;;
70450;SDS011;58869;51.982;4.450;2023-06-10T09:37:19;8.44;;;8.44;;
70450;SDS011;58869;51.982;4.450;2023-06-10T09:39:52;8.34;;;8.34;;
70450;SDS011;58869;51.982;4.450;2023-06-10T09:42:36;8.24;;;8.24;;
70450;SDS011;58869;51.982;4.450;2023-06-10T09:45:04;8.54;;;8.54;;
70450;SDS011;58869;51.982;4.450;2023-06-10T09:47:31;8.07;;;8.07;;
70450;SDS011;58869;51.982;4.450;2023-06-10T09:49:57;8.44;;;8.44;;
70450;SDS011;58869;51.982;4.450;2023-06-10T09:52:26;7.95;;;7.95;;
70450;SDS011;58869;51.982;4.450;2023-06-10T09:55:00;7.99;;;7.99;;
70450;SDS011;58869;51.982;4.450;2023-06-10T09:57:26;7.83;;;7.83;;
70450;SDS011;58869;51.982;4.450;2023-06-10T10:00:04;8.21;;;8.21;;
70450;SDS011;58869;51.982;4.450;2023-06-10T10:02:39;8.25;;;8.25;;
70450;SDS011;58869;51.982;4.450;2023-06-10T10:05:12;8.69;;;8.69;;
70450;SDS011;58869;51.982;4.450;2023-06-10T10:07:39;8.20;;;8.20;;
70450;SDS011;58869;51.982;4.450;2023-06-10T10:10:05;8.15;;;8.15;;
70450;SDS011;58869;51.982;4.450;2023-06-10T10:12:33;7.63;;;7.63;;
70450;SDS011;58869;51.982;4.450;2023-06-10T10:14:59;7.90;;;7.90;;
70450;SDS011;58869;51.982;4.450;2023-06-10T10:17:27;7.65;;;7.65;;
70450;SDS011;58869;51.982;4.450;2023-06-10T10:19:59;7.54;;;7.54;;
70450;SDS011;58869;51.982;4.450;2023-06-10T10:22:37;8.10;;;8.10;;
70450;SDS011;58869;51.982;4.450;2023-06-10T10:25:25;7.91;;;7.91;;
70450;SDS011;58869;51.982;4.450;2023-06-10T10:28:12;8.05;;;8.05;;
70450;SDS011;58869;51.982;4.450;2023-06-10T10:30:42;7.96;;;7.96;;
70450;SDS011;58869;51.982;4.450;2023-06-10T10:33:33;7.88;;;7.88;;
70450;SDS011;58869;51.982;4.450;2023-06-10T10:35:58;8.14;;;8.14;;
70450;SDS011;58869;51.982;4.450;2023-06-10T10:38:24;7.40;;;7.40;;
70450;SDS011;58869;51.982;4.450;2023-06-10T10:40:50;7.54;;;7.54;;
70450;SDS011;58869;51.982;4.450;2023-06-10T10:43:16;7.35;;;7.35;;
70450;SDS011;58869;51.982;4.450;2023-06-10T10:45:45;7.79;;;7.79;;
70450;SDS011;58869;51.982;4.450;2023-06-10T10:48:11;7.52;;;7.52;;
70450;SDS011;58869;51.982;4.450;2023-06-10T10:50:38;8.27;;;8.27;;
70450;SDS011;58869;51.982;4.450;2023-06-10T10:53:05;8.09;;;8.09;;
70450;SDS011;58869;51.982;4.450;2023-06-10T10:55:32;8.11;;;8.11;;
70450;SDS011;58869;51.982;4.450;2023-06-10T10:57:59;8.50;;;8.50;;
70450;SDS011;58869;51.982;4.450;2023-06-10T11:03:08;8.12;;;8.12;;
70450;SDS011;58869;51.982;4.450;2023-06-10T11:05:42;8.19;;;8.19;;
70450;SDS011;58869;51.982;4.450;2023-06-10T11:08:13;8.58;;;8.58;;
70450;SDS011;58869;51.982;4.450;2023-06-10T11:10:40;8.50;;;8.50;;
70450;SDS011;58869;51.982;4.450;2023-06-10T11:13:07;8.86;;;8.86;;
70450;SDS011;58869;51.982;4.450;2023-06-10T11:15:57;8.39;;;8.39;;
70450;SDS011;58869;51.982;4.450;2023-06-10T11:21:56;8.56;;;8.56;;
70450;SDS011;58869;51.982;4.450;2023-06-10T11:24:26;8.33;;;8.33;;
70450;SDS011;58869;51.982;4.450;2023-06-10T11:36:06;8.42;;;8.42;;
70450;SDS011;58869;51.982;4.450;2023-06-10T11:38:33;7.92;;;7.92;;
70450;SDS011;58869;51.982;4.450;2023-06-10T11:40:59;8.30;;;8.30;;
70450;SDS011;58869;51.982;4.450;2023-06-10T11:43:27;8.27;;;8.27;;
70450;SDS011;58869;51.982;4.450;2023-06-10T11:46:05;8.08;;;8.08;;
70450;SDS011;58869;51.982;4.450;2023-06-10T11:48:33;8.33;;;8.33;;
70450;SDS011;58869;51.982;4.450;2023-06-10T11:50:59;8.58;;;8.58;;
70450;SDS011;58869;51.982;4.450;2023-06-10T11:53:25;7.99;;;7.99;;
70450;SDS011;58869;51.982;4.450;2023-06-10T11:55:50;7.96;;;7.96;;
70450;SDS011;58869;51.982;4.450;2023-06-10T11:58:17;8.04;;;8.04;;
70450;SDS011;58869;51.982;4.450;2023-06-10T12:00:47;8.38;;;8.38;;
70450;SDS011;58869;51.982;4.450;2023-06-10T12:03:21;8.21;;;8.21;;
70450;SDS011;58869;51.982;4.450;2023-06-10T12:05:59;8.09;;;8.09;;
70450;SDS011;58869;51.982;4.450;2023-06-10T12:08:29;7.99;;;7.99;;
70450;SDS011;58869;51.982;4.450;2023-06-10T12:10:55;8.03;;;8.03;;
70450;SDS011;58869;51.982;4.450;2023-06-10T12:13:21;7.78;;;7.78;;
70450;SDS011;58869;51.982;4.450;2023-06-10T12:15:49;7.94;;;7.94;;
70450;SDS011;58869;51.982;4.450;2023-06-10T12:20:44;7.62;;;7.62;;
70450;SDS011;58869;51.982;4.450;2023-06-10T12:23:11;8.10;;;8.10;;
70450;SDS011;58869;51.982;4.450;2023-06-10T12:25:37;8.16;;;8.16;;
70450;SDS011;58869;51.982;4.450;2023-06-10T12:28:03;8.24;;;8.24;;
70450;SDS011;58869;51.982;4.450;2023-06-10T12:30:30;8.87;;;8.87;;
70450;SDS011;58869;51.982;4.450;2023-06-10T12:32:56;8.39;;;8.39;;
70450;SDS011;58869;51.982;4.450;2023-06-10T12:35:26;8.82;;;8.82;;
70450;SDS011;58869;51.982;4.450;2023-06-10T12:38:04;8.26;;;8.26;;
70450;SDS011;58869;51.982;4.450;2023-06-10T12:40:35;8.24;;;8.24;;
70450;SDS011;58869;51.982;4.450;2023-06-10T12:43:04;8.44;;;8.44;;
70450;SDS011;58869;51.982;4.450;2023-06-10T12:45:30;8.43;;;8.43;;
70450;SDS011;58869;51.982;4.450;2023-06-10T12:48:16;8.22;;;8.22;;
70450;SDS011;58869;51.982;4.450;2023-06-10T12:50:55;8.10;;;8.10;;
70450;SDS011;58869;51.982;4.450;2023-06-10T12:53:23;8.06;;;8.06;;
70450;SDS011;58869;51.982;4.450;2023-06-10T12:55:50;8.04;;;8.04;;
70450;SDS011;58869;51.982;4.450;2023-06-10T12:58:16;8.38;;;8.38;;
70450;SDS011;58869;51.982;4.450;2023-06-10T13:00:41;8.57;;;8.57;;
70450;SDS011;58869;51.982;4.450;2023-06-10T13:03:08;8.38;;;8.38;;
70450;SDS011;58869;51.982;4.450;2023-06-10T13:05:35;8.34;;;8.34;;
70450;SDS011;58869;51.982;4.450;2023-06-10T13:08:03;8.11;;;8.11;;
70450;SDS011;58869;51.982;4.450;2023-06-10T13:10:32;8.19;;;8.19;;
70450;SDS011;58869;51.982;4.450;2023-06-10T13:12:59;8.00;;;8.00;;
70450;SDS011;58869;51.982;4.450;2023-06-10T13:15:25;7.87;;;7.87;;
70450;SDS011;58869;51.982;4.450;2023-06-10T13:17:51;8.27;;;8.27;;
70450;SDS011;58869;51.982;4.450;2023-06-10T13:20:18;8.05;;;8.05;;
70450;SDS011;58869;51.982;4.450;2023-06-10T13:22:45;8.02;;;8.02;;
70450;SDS011;58869;51.982;4.450;2023-06-10T13:25:11;7.84;;;7.84;;
70450;SDS011;58869;51.982;4.450;2023-06-10T13:27:37;7.95;;;7.95;;
70450;SDS011;58869;51.982;4.450;2023-06-10T13:30:09;8.00;;;8.00;;
70450;SDS011;58869;51.982;4.450;2023-06-10T13:32:36;8.32;;;8.32;;
70450;SDS011;58869;51.982;4.450;2023-06-10T13:35:02;8.12;;;8.12;;
70450;SDS011;58869;51.982;4.450;2023-06-10T13:37:28;7.97;;;7.97;;
70450;SDS011;58869;51.982;4.450;2023-06-10T13:39:54;8.13;;;8.13;;
70450;SDS011;58869;51.982;4.450;2023-06-10T13:42:20;8.03;;;8.03;;
70450;SDS011;58869;51.982;4.450;2023-06-10T13:44:46;8.01;;;8.01;;
70450;SDS011;58869;51.982;4.450;2023-06-10T13:47:12;8.16;;;8.16;;
70450;SDS011;58869;51.982;4.450;2023-06-10T13:49:39;8.26;;;8.26;;
70450;SDS011;58869;51.982;4.450;2023-06-10T13:52:05;8.08;;;8.08;;
70450;SDS011;58869;51.982;4.450;2023-06-10T13:54:31;7.86;;;7.86;;
70450;SDS011;58869;51.982;4.450;2023-06-10T13:56:57;8.12;;;8.12;;
70450;SDS011;58869;51.982;4.450;2023-06-10T13:59:23;7.89;;;7.89;;
70450;SDS011;58869;51.982;4.450;2023-06-10T14:01:48;8.23;;;8.23;;
70450;SDS011;58869;51.982;4.450;2023-06-10T14:04:13;8.07;;;8.07;;
70450;SDS011;58869;51.982;4.450;2023-06-10T14:06:39;8.19;;;8.19;;
70450;SDS011;58869;51.982;4.450;2023-06-10T14:09:05;8.18;;;8.18;;
70450;SDS011;58869;51.982;4.450;2023-06-10T14:11:30;7.82;;;7.82;;
70450;SDS011;58869;51.982;4.450;2023-06-10T14:13:56;8.10;;;8.10;;
70450;SDS011;58869;51.982;4.450;2023-06-10T14:16:23;8.40;;;8.40;;
70450;SDS011;58869;51.982;4.450;2023-06-10T14:18:48;7.98;;;7.98;;
70450;SDS011;58869;51.982;4.450;2023-06-10T14:21:15;8.23;;;8.23;;
70450;SDS011;58869;51.982;4.450;2023-06-10T14:23:41;7.94;;;7.94;;
70450;SDS011;58869;51.982;4.450;2023-06-10T14:26:08;8.23;;;8.23;;
70450;SDS011;58869;51.982;4.450;2023-06-10T14:28:34;8.08;;;8.08;;
70450;SDS011;58869;51.982;4.450;2023-06-10T14:31:01;8.21;;;8.21;;
70450;SDS011;58869;51.982;4.450;2023-06-10T14:33:26;8.09;;;8.09;;
70450;SDS011;58869;51.982;4.450;2023-06-10T14:35:53;8.34;;;8.34;;
70450;SDS011;58869;51.982;4.450;2023-06-10T14:38:19;7.95;;;7.95;;
70450;SDS011;58869;51.982;4.450;2023-06-10T14:40:44;8.25;;;8.25;;
70450;SDS011;58869;51.982;4.450;2023-06-10T14:43:11;7.71;;;7.71;;
70450;SDS011;58869;51.982;4.450;2023-06-10T14:45:37;8.49;;;8.49;;
70450;SDS011;58869;51.982;4.450;2023-06-10T14:48:06;7.95;;;7.95;;
70450;SDS011;58869;51.982;4.450;2023-06-10T14:50:34;7.54;;;7.54;;
70450;SDS011;58869;51.982;4.450;2023-06-10T14:53:00;7.03;;;7.03;;
70450;SDS011;58869;51.982;4.450;2023-06-10T14:55:26;7.47;;;7.47;;
70450;SDS011;58869;51.982;4.450;2023-06-10T14:57:51;7.44;;;7.44;;
70450;SDS011;58869;51.982;4.450;2023-06-10T15:00:17;7.67;;;7.67;;
70450;SDS011;58869;51.982;4.450;2023-06-10T15:05:22;7.93;;;7.93;;
70450;SDS011;58869;51.982;4.450;2023-06-10T15:07:55;7.84;;;7.84;;
70450;SDS011;58869;51.982;4.450;2023-06-10T15:10:21;8.41;;;8.41;;
70450;SDS011;58869;51.982;4.450;2023-06-10T15:12:46;8.05;;;8.05;;
70450;SDS011;58869;51.982;4.450;2023-06-10T15:15:22;7.80;;;7.80;;
70450;SDS011;58869;51.982;4.450;2023-06-10T15:17:51;7.84;;;7.84;;
70450;SDS011;58869;51.982;4.450;2023-06-10T15:20:17;7.94;;;7.94;;
70450;SDS011;58869;51.982;4.450;2023-06-10T15:22:43;7.67;;;7.67;;
70450;SDS011;58869;51.982;4.450;2023-06-10T15:25:11;8.09;;;8.09;;
70450;SDS011;58869;51.982;4.450;2023-06-10T15:30:05;8.31;;;8.31;;
70450;SDS011;58869;51.982;4.450;2023-06-10T15:32:32;8.44;;;8.44;;
70450;SDS011;58869;51.982;4.450;2023-06-10T15:34:58;8.01;;;8.01;;
70450;SDS011;58869;51.982;4.450;2023-06-10T15:37:23;8.31;;;8.31;;
70450;SDS011;58869;51.982;4.450;2023-06-10T15:39:49;8.38;;;8.38;;